createdAt,value
2023-01-19T00:00:25.255Z,30.80
2023-01-19T00:02:55.005Z,27.07
2023-01-19T00:05:23.446Z,30.03
2023-01-19T00:07:51.653Z,28.33
2023-01-19T00:10:20.049Z,26.93
2023-01-19T00:12:48.305Z,25.93
2023-01-19T00:15:17.982Z,27.00
2023-01-19T00:17:46.295Z,27.50
2023-01-19T00:20:14.618Z,25.67
2023-01-19T00:22:42.863Z,24.60
2023-01-19T00:25:11.518Z,24.27
2023-01-19T00:27:39.768Z,25.23
2023-01-19T00:30:09.574Z,26.13
2023-01-19T00:32:39.199Z,23.30
2023-01-19T00:35:07.856Z,26.13
2023-01-19T00:37:36.076Z,25.63
2023-01-19T00:40:04.487Z,25.87
2023-01-19T00:42:41.486Z,25.13
2023-01-19T00:45:10.964Z,26.03
2023-01-19T00:47:40.671Z,26.03
2023-01-19T00:50:11.731Z,23.33
2023-01-19T00:52:39.991Z,24.17
2023-01-19T00:55:09.286Z,24.80
2023-01-19T00:57:37.523Z,25.40
2023-01-19T01:00:07.300Z,22.93
2023-01-19T01:02:35.729Z,23.67
2023-01-19T01:05:06.177Z,24.70
2023-01-19T01:07:40.704Z,26.40
2023-01-19T01:10:10.400Z,24.97
2023-01-19T01:12:38.723Z,25.03
2023-01-19T01:15:08.931Z,24.60
2023-01-19T01:17:37.247Z,26.07
2023-01-19T01:20:08.043Z,24.07
2023-01-19T01:22:36.276Z,24.43
2023-01-19T01:25:04.642Z,22.00
2023-01-19T01:27:32.893Z,22.83
2023-01-19T01:30:01.166Z,23.50
2023-01-19T01:32:29.871Z,23.23
2023-01-19T01:34:58.165Z,23.37
2023-01-19T01:37:27.850Z,23.10
2023-01-19T01:39:56.242Z,24.27
2023-01-19T01:42:27.919Z,23.60
2023-01-19T01:44:56.922Z,24.87
2023-01-19T01:47:29.353Z,26.97
2023-01-19T01:50:03.520Z,29.33
2023-01-19T01:52:33.632Z,32.33
2023-01-19T01:55:02.073Z,31.10
2023-01-19T01:57:30.337Z,28.33
2023-01-19T01:59:58.635Z,27.60
2023-01-19T02:02:45.884Z,27.53
2023-01-19T02:05:17.052Z,25.37
2023-01-19T02:08:05.307Z,24.57
2023-01-19T02:10:50.968Z,26.70
2023-01-19T02:13:20.659Z,34.33
2023-01-19T02:15:49.702Z,35.93
2023-01-19T02:18:18.073Z,36.30
2023-01-19T02:20:51.913Z,38.20
2023-01-19T02:23:28.711Z,33.77
2023-01-19T02:25:57.004Z,33.13
2023-01-19T02:28:26.206Z,34.13
2023-01-19T02:30:54.576Z,31.97
2023-01-19T02:33:22.886Z,32.40
2023-01-19T02:35:51.508Z,32.10
2023-01-19T02:38:20.031Z,32.83
2023-01-19T02:40:49.791Z,34.33
2023-01-19T02:43:18.430Z,33.10
2023-01-19T02:45:46.826Z,32.47
2023-01-19T02:48:16.126Z,33.87
2023-01-19T02:50:46.359Z,33.30
2023-01-19T02:53:39.886Z,34.47
2023-01-19T02:56:37.806Z,36.70
2023-01-19T02:59:10.683Z,37.10
2023-01-19T03:01:44.320Z,40.23
2023-01-19T03:04:16.000Z,40.43
2023-01-19T03:06:45.960Z,40.53
2023-01-19T03:09:16.737Z,39.67
2023-01-19T03:11:47.561Z,39.07
2023-01-19T03:14:19.671Z,40.40
2023-01-19T03:16:49.108Z,38.37
2023-01-19T03:19:20.260Z,39.37
2023-01-19T03:21:49.402Z,39.00
2023-01-19T03:24:17.664Z,39.70
2023-01-19T03:26:47.104Z,38.30
2023-01-19T03:29:15.705Z,38.07
2023-01-19T03:31:46.164Z,39.03
2023-01-19T03:34:15.165Z,41.67
2023-01-19T03:36:45.388Z,39.20
2023-01-19T03:39:14.043Z,41.43
2023-01-19T03:41:42.394Z,38.73
2023-01-19T03:44:10.620Z,41.00
2023-01-19T03:46:38.924Z,43.13
2023-01-19T03:49:09.333Z,42.20
2023-01-19T03:51:39.051Z,43.90
2023-01-19T03:54:07.339Z,44.30
2023-01-19T03:56:35.590Z,46.57
2023-01-19T03:59:05.526Z,46.83
2023-01-19T04:01:33.883Z,46.67
2023-01-19T04:04:02.243Z,46.60
2023-01-19T04:06:32.198Z,50.07
2023-01-19T04:09:00.569Z,48.73
2023-01-19T04:11:28.812Z,48.33
2023-01-19T04:13:57.075Z,46.57
2023-01-19T04:16:25.418Z,46.33
2023-01-19T04:18:53.806Z,44.53
2023-01-19T04:21:22.092Z,46.60
2023-01-19T04:23:53.043Z,44.73
2023-01-19T04:26:21.329Z,47.60
2023-01-19T04:28:49.568Z,47.20
2023-01-19T04:31:24.686Z,48.33
2023-01-19T04:33:53.066Z,46.53
2023-01-19T04:36:21.278Z,46.23
2023-01-19T04:38:49.740Z,42.27
2023-01-19T04:41:19.493Z,43.87
2023-01-19T04:43:48.130Z,41.57
2023-01-19T04:46:16.561Z,41.30
2023-01-19T04:48:44.769Z,43.60
2023-01-19T04:51:13.111Z,42.93
2023-01-19T04:53:41.377Z,41.23
2023-01-19T04:56:09.684Z,45.30
2023-01-19T04:58:39.582Z,44.87
2023-01-19T05:01:09.564Z,45.70
2023-01-19T05:03:37.865Z,44.97
2023-01-19T05:06:06.651Z,44.90
2023-01-19T05:08:34.893Z,63.13
2023-01-19T05:11:03.247Z,52.30
2023-01-19T05:13:31.495Z,56.70
2023-01-19T05:16:01.479Z,55.30
2023-01-19T05:18:30.011Z,57.43
2023-01-19T05:20:58.244Z,57.63
2023-01-19T05:23:26.492Z,56.27
2023-01-19T05:25:56.357Z,54.63
2023-01-19T05:28:24.661Z,55.27
2023-01-19T05:30:53.028Z,53.17
2023-01-19T05:33:22.708Z,56.33
2023-01-19T05:35:51.481Z,62.13
2023-01-19T05:38:29.374Z,67.53
2023-01-19T05:41:02.567Z,66.90
2023-01-19T05:43:30.845Z,70.33
2023-01-19T05:45:59.063Z,61.97
2023-01-19T05:48:28.681Z,61.47
2023-01-19T05:50:59.443Z,67.93
2023-01-19T05:53:27.685Z,64.50
2023-01-19T05:56:00.865Z,65.67
2023-01-19T05:58:29.142Z,72.00
2023-01-19T06:00:57.467Z,76.17
2023-01-19T06:03:25.883Z,75.57
2023-01-19T06:05:57.485Z,66.97
2023-01-19T06:08:25.847Z,72.73
2023-01-19T06:10:54.318Z,70.97
2023-01-19T06:13:22.658Z,70.00
2023-01-19T06:15:50.939Z,68.50
2023-01-19T06:18:19.182Z,67.07
2023-01-19T06:20:47.476Z,64.97
2023-01-19T06:23:17.124Z,65.83
2023-01-19T06:25:45.422Z,69.00
2023-01-19T06:28:13.646Z,73.80
2023-01-19T06:30:41.931Z,72.23
2023-01-19T06:33:10.160Z,73.73
2023-01-19T06:35:38.395Z,70.03
2023-01-19T06:38:06.672Z,68.93
2023-01-19T06:40:36.420Z,64.20
2023-01-19T06:43:04.650Z,61.17
2023-01-19T06:45:33.106Z,57.33
2023-01-19T06:48:01.378Z,60.60
2023-01-19T06:50:29.825Z,57.33
2023-01-19T06:52:58.691Z,57.70
2023-01-19T06:55:28.018Z,58.17
2023-01-19T06:58:01.404Z,60.03
2023-01-19T07:00:29.705Z,62.70
2023-01-19T07:02:57.994Z,65.30
2023-01-19T07:05:26.419Z,64.67
2023-01-19T07:07:54.790Z,65.57
2023-01-19T07:10:23.111Z,63.77
2023-01-19T07:12:51.452Z,62.30
2023-01-19T07:15:23.015Z,63.10
2023-01-19T07:17:51.278Z,65.47
2023-01-19T07:20:19.772Z,67.23
2023-01-19T07:22:49.007Z,66.40
2023-01-19T07:25:17.867Z,62.77
2023-01-19T07:27:46.115Z,63.20
2023-01-19T07:30:16.182Z,64.63
2023-01-19T07:32:45.924Z,67.70
2023-01-19T07:35:14.518Z,65.83
2023-01-19T07:37:42.788Z,62.33
2023-01-19T07:40:12.359Z,62.20
2023-01-19T07:42:40.757Z,60.60
2023-01-19T07:45:10.217Z,57.13
2023-01-19T07:47:38.526Z,52.67
2023-01-19T07:50:09.332Z,52.43
2023-01-19T07:52:37.581Z,55.83
2023-01-19T07:55:06.477Z,59.07
2023-01-19T07:57:35.126Z,58.47
2023-01-19T08:00:05.027Z,54.07
2023-01-19T08:02:34.116Z,57.70
2023-01-19T08:05:02.856Z,52.77
2023-01-19T08:07:32.485Z,50.13
2023-01-19T08:10:00.771Z,48.03
2023-01-19T08:12:29.537Z,47.23
2023-01-19T08:14:57.814Z,45.53
2023-01-19T08:17:26.048Z,42.53
2023-01-19T08:19:54.440Z,43.47
2023-01-19T08:22:22.698Z,42.90
2023-01-19T08:24:53.114Z,40.37
2023-01-19T08:27:21.344Z,41.23
2023-01-19T08:29:49.660Z,37.57
2023-01-19T08:32:18.247Z,39.03
2023-01-19T08:34:46.623Z,37.67
2023-01-19T08:37:14.972Z,36.33
2023-01-19T08:39:43.279Z,36.47
2023-01-19T08:42:12.938Z,39.03
2023-01-19T08:44:49.665Z,38.67
2023-01-19T08:47:25.302Z,39.23
2023-01-19T08:49:53.617Z,38.37
2023-01-19T08:52:21.867Z,41.30
2023-01-19T08:54:50.158Z,39.27
2023-01-19T08:57:19.787Z,38.93
2023-01-19T08:59:48.534Z,38.30
2023-01-19T09:02:16.855Z,38.73
2023-01-19T09:04:45.176Z,41.10
2023-01-19T09:07:13.447Z,40.47
2023-01-19T09:09:43.548Z,41.20
2023-01-19T09:12:11.816Z,40.37
2023-01-19T09:14:41.544Z,44.53
2023-01-19T09:17:09.815Z,43.20
2023-01-19T09:19:38.125Z,42.73
2023-01-19T09:22:06.414Z,44.30
2023-01-19T09:24:35.080Z,45.27
2023-01-19T09:27:03.306Z,45.67
2023-01-19T09:29:31.612Z,41.93
2023-01-19T09:32:01.258Z,42.23
2023-01-19T09:34:29.778Z,44.43
2023-01-19T09:36:58.041Z,45.90
2023-01-19T09:39:26.488Z,45.80
2023-01-19T09:41:59.789Z,43.43
2023-01-19T09:44:30.027Z,45.73
2023-01-19T09:46:58.662Z,47.37
2023-01-19T09:49:29.757Z,46.53
2023-01-19T09:51:58.042Z,46.87
2023-01-19T09:54:30.551Z,48.20
2023-01-19T09:56:58.811Z,48.77
2023-01-19T09:59:28.038Z,49.33
2023-01-19T10:02:17.678Z,48.33
2023-01-19T10:04:49.113Z,43.90
2023-01-19T10:07:24.049Z,41.87
2023-01-19T10:10:05.129Z,43.07
2023-01-19T10:12:40.719Z,41.73
2023-01-19T10:15:16.457Z,42.30
2023-01-19T10:17:50.135Z,44.27
2023-01-19T10:20:24.196Z,44.17
2023-01-19T10:22:52.495Z,44.90
2023-01-19T10:25:23.819Z,41.23
2023-01-19T10:27:52.235Z,41.70
2023-01-19T10:30:23.298Z,42.17
2023-01-19T10:32:51.879Z,41.60
2023-01-19T10:35:25.772Z,43.53
2023-01-19T10:37:56.228Z,42.70
2023-01-19T10:40:28.926Z,42.27
2023-01-19T10:42:57.578Z,42.80
2023-01-19T10:45:28.598Z,44.23
2023-01-19T10:47:57.228Z,44.70
2023-01-19T10:50:29.282Z,42.80
2023-01-19T10:52:58.861Z,43.40
2023-01-19T10:55:29.319Z,42.40
2023-01-19T10:57:57.657Z,42.30
2023-01-19T11:00:33.965Z,41.20
2023-01-19T11:03:02.530Z,37.10
2023-01-19T11:05:33.561Z,36.10
2023-01-19T11:08:01.863Z,34.07
2023-01-19T11:10:30.315Z,34.83
2023-01-19T11:13:03.831Z,37.13
2023-01-19T11:15:34.866Z,34.90
2023-01-19T11:18:04.444Z,35.50
2023-01-19T11:20:40.751Z,33.87
2023-01-19T11:23:12.272Z,33.70
2023-01-19T11:25:40.535Z,36.00
2023-01-19T11:28:15.336Z,37.77
2023-01-19T11:30:55.486Z,34.30
2023-01-19T11:33:27.900Z,33.40
2023-01-19T11:36:05.822Z,33.23
2023-01-19T11:38:34.082Z,31.40
2023-01-19T11:41:06.795Z,30.67
2023-01-19T11:43:48.368Z,31.07
2023-01-19T11:46:17.327Z,31.00
2023-01-19T11:48:48.502Z,33.27
2023-01-19T11:51:19.063Z,31.03
2023-01-19T11:53:48.291Z,32.33
2023-01-19T11:56:17.337Z,30.27
2023-01-19T11:58:46.922Z,29.37
2023-01-19T12:01:21.103Z,31.90
2023-01-19T12:03:54.753Z,31.37
2023-01-19T12:06:26.955Z,31.13
2023-01-19T12:08:56.629Z,30.70
2023-01-19T12:11:26.667Z,31.23
2023-01-19T12:13:54.896Z,31.17
2023-01-19T12:16:23.864Z,30.53
2023-01-19T12:18:55.795Z,30.03
2023-01-19T12:21:25.543Z,31.20
2023-01-19T12:23:59.077Z,30.20
2023-01-19T12:26:32.573Z,31.50
2023-01-19T12:29:01.959Z,30.47
2023-01-19T12:31:30.335Z,30.40
2023-01-19T12:34:16.685Z,28.97
2023-01-19T12:36:46.569Z,30.17
2023-01-19T12:39:18.445Z,31.67
2023-01-19T12:41:47.180Z,33.87
2023-01-19T12:44:35.051Z,35.33
2023-01-19T12:47:20.263Z,32.73
2023-01-19T12:49:50.395Z,33.87
2023-01-19T12:52:28.117Z,32.50
2023-01-19T12:55:04.775Z,33.47
2023-01-19T12:57:35.148Z,35.87
2023-01-19T13:00:06.118Z,33.33
2023-01-19T13:02:52.722Z,40.87
2023-01-19T13:05:24.449Z,39.13
2023-01-19T13:08:19.044Z,40.97
2023-01-19T13:11:13.971Z,37.93
2023-01-19T13:13:43.877Z,37.00
2023-01-19T13:16:49.685Z,39.03
2023-01-19T13:19:18.475Z,34.57
2023-01-19T13:21:47.437Z,35.73
2023-01-19T13:24:17.826Z,32.67
2023-01-19T13:26:55.603Z,31.67
2023-01-19T13:29:28.309Z,32.27
2023-01-19T13:32:02.675Z,29.43
2023-01-19T13:34:32.071Z,27.77
2023-01-19T13:37:00.528Z,29.13
2023-01-19T13:39:31.505Z,25.67
2023-01-19T13:42:02.283Z,29.07
2023-01-19T13:44:31.391Z,29.67
2023-01-19T13:46:59.919Z,28.10
2023-01-19T13:49:29.697Z,29.13
2023-01-19T13:52:08.738Z,26.00
2023-01-19T13:54:38.494Z,27.37
2023-01-19T13:57:06.722Z,27.93
2023-01-19T13:59:35.034Z,31.33
2023-01-19T14:02:05.950Z,30.37
2023-01-19T14:04:35.088Z,31.90
2023-01-19T14:07:04.432Z,29.30
2023-01-19T14:09:32.791Z,29.27
2023-01-19T14:12:12.064Z,29.70
2023-01-19T14:14:40.549Z,28.63
2023-01-19T14:17:27.765Z,28.03
2023-01-19T14:19:56.880Z,26.67
2023-01-19T14:22:39.442Z,28.23
2023-01-19T14:25:30.421Z,27.73
2023-01-19T14:28:28.707Z,26.47
2023-01-19T14:30:57.815Z,25.80
2023-01-19T14:33:36.453Z,25.93
2023-01-19T14:36:30.970Z,27.40
2023-01-19T14:39:00.267Z,27.20
2023-01-19T14:41:32.537Z,28.50
2023-01-19T14:44:02.172Z,31.37
2023-01-19T14:46:30.507Z,30.93
2023-01-19T14:49:01.862Z,31.97
2023-01-19T14:51:30.155Z,32.90
2023-01-19T14:53:59.205Z,28.27
2023-01-19T14:56:28.293Z,28.60
2023-01-19T14:58:56.940Z,30.07
2023-01-19T15:01:28.515Z,28.63
2023-01-19T15:03:57.994Z,28.53
2023-01-19T15:06:26.688Z,26.13
2023-01-19T15:08:54.981Z,28.07
2023-01-19T15:11:24.550Z,28.43
2023-01-19T15:13:52.843Z,28.30
2023-01-19T15:16:21.146Z,27.37
2023-01-19T15:18:50.812Z,29.77
2023-01-19T15:21:20.642Z,27.13
2023-01-19T15:23:48.949Z,29.63
2023-01-19T15:26:19.668Z,30.73
2023-01-19T15:28:48.853Z,37.07
2023-01-19T15:31:17.650Z,36.20
2023-01-19T15:33:46.082Z,34.23
2023-01-19T15:36:17.959Z,31.20
2023-01-19T15:38:46.693Z,31.43
2023-01-19T15:41:15.265Z,31.57
2023-01-19T15:43:43.504Z,29.60
2023-01-19T15:46:12.474Z,31.47
2023-01-19T15:48:40.768Z,29.30
2023-01-19T15:51:13.089Z,30.07
2023-01-19T15:53:42.880Z,30.63
2023-01-19T15:56:15.210Z,31.50
2023-01-19T15:58:43.528Z,34.53
2023-01-19T16:01:13.640Z,32.90
2023-01-19T16:03:41.975Z,32.30
2023-01-19T16:06:10.364Z,33.83
2023-01-19T16:08:38.818Z,35.20
2023-01-19T16:11:08.983Z,35.47
2023-01-19T16:13:37.227Z,36.57
2023-01-19T16:16:05.799Z,36.47
2023-01-19T16:18:34.134Z,35.17
2023-01-19T16:21:02.482Z,37.87
2023-01-19T16:23:30.743Z,38.80
2023-01-19T16:25:59.801Z,35.23
2023-01-19T16:28:29.856Z,36.00
2023-01-19T16:30:58.204Z,35.07
2023-01-19T16:33:26.593Z,37.07
2023-01-19T16:35:55.025Z,36.10
2023-01-19T16:38:23.866Z,34.83
2023-01-19T16:40:52.134Z,35.80
2023-01-19T16:43:20.418Z,34.17
2023-01-19T16:46:00.242Z,35.03
2023-01-19T16:48:28.660Z,36.47
2023-01-19T16:51:02.833Z,36.13
2023-01-19T16:53:31.200Z,37.23
2023-01-19T16:55:59.500Z,36.23
2023-01-19T16:58:27.778Z,40.10
2023-01-19T17:00:56.217Z,39.47
2023-01-19T17:03:27.130Z,38.13
2023-01-19T17:05:55.531Z,37.67
2023-01-19T17:08:23.750Z,40.17
2023-01-19T17:10:52.065Z,37.50
2023-01-19T17:13:20.309Z,42.20
2023-01-19T17:15:48.976Z,39.33
2023-01-19T17:18:17.233Z,37.20
2023-01-19T17:20:46.882Z,40.17
2023-01-19T17:23:15.167Z,40.90
2023-01-19T17:25:43.515Z,40.13
2023-01-19T17:28:11.785Z,40.13
2023-01-19T17:30:40.096Z,44.67
2023-01-19T17:33:08.431Z,43.10
2023-01-19T17:35:36.713Z,41.67
2023-01-19T17:38:06.411Z,42.03
2023-01-19T17:40:34.697Z,43.77
2023-01-19T17:43:02.949Z,42.17
2023-01-19T17:45:31.213Z,39.50
2023-01-19T17:47:59.503Z,39.00
2023-01-19T17:50:27.978Z,41.33
2023-01-19T17:52:56.247Z,38.43
2023-01-19T17:55:25.902Z,36.10
2023-01-19T17:57:54.186Z,35.50
2023-01-19T18:00:23.123Z,36.53
2023-01-19T18:02:52.002Z,33.03
2023-01-19T18:05:20.567Z,35.57
2023-01-19T18:07:48.861Z,33.17
2023-01-19T18:10:17.753Z,35.67
2023-01-19T18:12:47.401Z,36.93
2023-01-19T18:15:17.010Z,35.70
2023-01-19T18:17:45.385Z,34.57
2023-01-19T18:20:14.206Z,33.93
2023-01-19T18:22:42.633Z,34.20
2023-01-19T18:25:11.232Z,39.77
2023-01-19T18:27:39.508Z,35.93
2023-01-19T18:30:10.792Z,39.20
2023-01-19T18:32:39.173Z,41.03
2023-01-19T18:35:08.791Z,46.37
2023-01-19T18:37:37.090Z,42.90
2023-01-19T18:40:06.170Z,36.03
2023-01-19T18:42:35.382Z,36.27
2023-01-19T18:45:03.855Z,42.30
2023-01-19T18:47:34.111Z,34.73
2023-01-19T18:50:02.471Z,34.57
2023-01-19T18:52:32.342Z,34.57
2023-01-19T18:55:00.754Z,31.50
2023-01-19T18:57:29.043Z,34.27
2023-01-19T18:59:57.376Z,34.43
2023-01-19T19:02:25.654Z,35.93
2023-01-19T19:04:55.391Z,33.47
2023-01-19T19:07:23.713Z,34.87
2023-01-19T19:09:52.007Z,33.93
2023-01-19T19:12:20.287Z,31.50
2023-01-19T19:14:48.516Z,33.10
2023-01-19T19:17:16.761Z,34.00
2023-01-19T19:19:45.112Z,35.53
2023-01-19T19:22:14.777Z,36.27
2023-01-19T19:24:43.102Z,30.30
2023-01-19T19:27:14.245Z,34.80
2023-01-19T19:29:44.024Z,33.67
2023-01-19T19:32:12.336Z,33.30
2023-01-19T19:34:40.796Z,34.03
2023-01-19T19:37:09.077Z,33.83
2023-01-19T19:39:39.457Z,33.03
2023-01-19T19:42:07.783Z,36.50
2023-01-19T19:44:36.116Z,33.80
2023-01-19T19:47:04.444Z,33.30
2023-01-19T19:49:32.803Z,34.00
2023-01-19T19:52:01.210Z,33.97
2023-01-19T19:54:29.588Z,34.53
2023-01-19T19:56:59.253Z,33.73
2023-01-19T19:59:27.654Z,34.30
2023-01-19T20:01:55.966Z,33.93
2023-01-19T20:04:25.453Z,35.97
2023-01-19T20:06:53.819Z,35.83
2023-01-19T20:09:22.162Z,36.80
2023-01-19T20:11:50.489Z,38.63
2023-01-19T20:14:21.198Z,39.23
2023-01-19T20:16:49.689Z,40.83
2023-01-19T20:19:18.358Z,40.30
2023-01-19T20:21:46.668Z,43.00
2023-01-19T20:24:15.862Z,45.50
2023-01-19T20:26:45.904Z,44.87
2023-01-19T20:29:14.156Z,45.47
2023-01-19T20:31:45.809Z,46.77
2023-01-19T20:34:15.767Z,45.60
2023-01-19T20:36:44.424Z,48.83
2023-01-19T20:39:12.894Z,48.83
2023-01-19T20:41:45.130Z,49.30
2023-01-19T20:44:13.969Z,50.20
2023-01-19T20:46:42.557Z,47.00
2023-01-19T20:49:12.472Z,50.07
2023-01-19T20:51:43.465Z,52.40
2023-01-19T20:54:12.047Z,50.37
2023-01-19T20:56:41.389Z,52.10
2023-01-19T20:59:09.822Z,50.17
2023-01-19T21:01:38.437Z,51.93
2023-01-19T21:04:06.944Z,49.63
2023-01-19T21:06:36.861Z,45.97
2023-01-19T21:09:05.386Z,48.90
2023-01-19T21:11:33.712Z,47.23
2023-01-19T21:14:02.054Z,47.10
2023-01-19T21:16:31.979Z,46.87
2023-01-19T21:19:00.344Z,47.73
2023-01-19T21:21:31.105Z,44.60
2023-01-19T21:24:02.256Z,45.33
2023-01-19T21:26:31.042Z,47.20
2023-01-19T21:28:59.460Z,47.60
2023-01-19T21:31:28.431Z,47.13
2023-01-19T21:33:57.244Z,49.43
2023-01-19T21:36:25.621Z,46.57
2023-01-19T21:38:55.688Z,49.50
2023-01-19T21:41:25.647Z,48.13
2023-01-19T21:43:53.985Z,48.10
2023-01-19T21:46:22.865Z,40.23
2023-01-19T21:48:51.261Z,36.50
2023-01-19T21:51:19.679Z,39.83
2023-01-19T21:53:47.991Z,41.93
2023-01-19T21:56:17.035Z,42.00
2023-01-19T21:58:48.314Z,38.17
2023-01-19T22:01:16.728Z,40.83
2023-01-19T22:03:45.084Z,37.70
2023-01-19T22:06:14.667Z,37.30
2023-01-19T22:08:44.803Z,37.27
2023-01-19T22:11:13.900Z,39.23
2023-01-19T22:13:42.231Z,36.70
2023-01-19T22:16:12.720Z,38.63
2023-01-19T22:18:41.725Z,40.20
2023-01-19T22:21:10.861Z,38.60
2023-01-19T22:23:39.123Z,42.50
2023-01-19T22:26:07.419Z,40.03
2023-01-19T22:28:35.748Z,37.93
2023-01-19T22:31:05.180Z,38.10
2023-01-19T22:33:34.891Z,41.87
2023-01-19T22:36:13.902Z,39.37
2023-01-19T22:38:42.298Z,41.40
2023-01-19T22:41:15.033Z,38.27
2023-01-19T22:43:43.448Z,38.93
2023-01-19T22:46:11.848Z,40.77
2023-01-19T22:48:41.680Z,38.27
2023-01-19T22:51:10.245Z,40.00
2023-01-19T22:53:38.474Z,41.43
2023-01-19T22:56:14.137Z,42.53
2023-01-19T22:58:44.251Z,43.23
2023-01-19T23:01:12.977Z,42.37
2023-01-19T23:03:42.704Z,45.13
2023-01-19T23:06:11.961Z,41.87
2023-01-19T23:08:40.294Z,43.50
2023-01-19T23:11:09.640Z,43.70
2023-01-19T23:13:38.060Z,41.07
2023-01-19T23:16:08.141Z,42.27
2023-01-19T23:18:36.433Z,43.17
2023-01-19T23:21:22.021Z,46.30
2023-01-19T23:23:50.284Z,44.47
2023-01-19T23:26:19.435Z,43.47
2023-01-19T23:28:47.860Z,44.00
2023-01-19T23:31:17.247Z,44.37
2023-01-19T23:33:45.560Z,44.37
2023-01-19T23:36:13.918Z,43.90
2023-01-19T23:38:43.551Z,44.20
2023-01-19T23:41:11.963Z,46.13
2023-01-19T23:43:40.208Z,47.87
2023-01-19T23:46:09.379Z,51.23
2023-01-19T23:48:37.976Z,52.67
2023-01-19T23:51:09.272Z,50.70
2023-01-19T23:53:37.796Z,48.77
2023-01-19T23:56:14.542Z,48.73
2023-01-19T23:58:42.849Z,49.37
